Latest Weather Observations for Mount Baw Baw

IDV60801

Issued at 6:42 am EDT Saturday 16 October 2021 (issued every 10 minutes, with the page automatically refreshed every 10 minutes)

About weather observations | Map of weather stations | Latest weather observations for VIC | Other Formats
Station Details ID: 085291 Name: MOUNT BAW BAW Lat: -37.84 Lon: 146.27 Height: 1561.0 m
Data from the previous 72 hours. | See also: Recent months at Mount Baw Baw
Date/Time
EDT
Temp
°C
App
Temp
°C
Dew
Point
°C
Rel
Hum
%
Delta-T
°C
Wind Press
QNH
hPa
Press
MSL
hPa
Rain since
9am
mm
Dir  Spd
km/h
Gust
km/h
Spd
kts
Gust
kts
16/06:30am 1.9 -7.2 1.9 100 0.0 SW 39 67 - 36 - - -
16/06:00am 2.2 -6.5 2.2 100 0.0 SW 37 76 - 41 - - -
16/05:30am 2.5 -6.5 2.5 100 0.0 SW 39 70 - 38 - - -
16/05:00am 2.5 -6.9 2.5 100 0.0 SW 41 89 - 48 - - -
16/04:59am 2.5 -6.9 2.5 100 0.0 SW 41 89 - 48 - - -
16/04:30am 3.1 -5.0 3.1 100 0.0 SW 35 69 - 37 - - -
16/04:00am 3.0 -6.3 3.0 100 0.0 SW 41 70 - 38 - - -
16/03:30am 2.8 -6.1 2.8 100 0.0 SW 39 61 - 33 - - -
16/03:00am 3.0 -4.8 3.0 100 0.0 SW 33 65 - 35 - - 17.0
16/02:30am 2.9 -4.9 2.9 100 0.0 SW 33 59 - 32 - - -
16/02:00am 2.7 -4.9 2.7 100 0.0 SW 32 57 - 31 - - -
16/01:30am 2.5 -4.8 2.5 100 0.0 WSW 30 50 - 27 - - -
16/01:16am 2.6 -4.3 2.6 100 0.0 WSW 28 46 - 25 - - -
16/01:00am 2.3 -5.0 2.3 100 0.0 SW 30 46 - 25 - - -
16/12:30am 2.1 -5.6 2.1 100 0.0 WSW 32 52 - 28 - - -
16/12:01am 2.0 -5.8 2.0 100 0.0 WSW 32 52 - 28 - - -
16/12:00am 2.0 -5.8 2.0 100 0.0 WSW 32 48 - 26 - - -
 
Date/Time
EDT
Temp
°C
App
Temp
°C
Dew
Point
°C
Rel
Hum
%
Delta-T
°C
Wind Press
QNH
hPa
Press
MSL
hPa
Rain since
9am
mm
Dir  Spd
km/h
Gust
km/h
Spd
kts
Gust
kts
15/11:30pm 1.8 -5.6 1.8 100 0.0 WSW 30 54 - 29 - - -
15/11:00pm 1.4 -5.7 1.4 100 0.0 WSW 28 46 - 25 - - -
15/10:30pm 0.6 -7.6 0.6 100 0.0 W 33 61 - 33 - - -
15/10:00pm 0.4 -7.2 0.4 100 0.0 W 30 52 - 28 - - -
15/09:50pm 0.1 -7.2 0.1 100 0.0 W 28 48 - 26 - - -
15/09:30pm 0.0 -6.5 0.0 100 0.0 W 24 44 - 24 - - -
15/09:00pm -0.1 -6.7 -0.1 100 0.0 W 24 39 - 21 - - 6.0
15/08:30pm -0.1 -6.7 -0.1 100 0.0 W 24 37 - 20 - - -
15/08:00pm 0.0 -6.2 0.0 100 0.0 WSW 22 35 - 19 - - -
15/07:30pm 0.1 -6.4 0.1 100 0.0 WSW 24 39 - 21 - - -
15/07:01pm 0.4 -6.8 0.4 100 0.0 WSW 28 46 - 25 - - -
15/07:00pm 0.5 -6.3 0.5 100 0.0 WSW 26 46 - 25 - - -
15/06:30pm 1.0 -5.4 1.0 100 0.0 WSW 24 41 - 22 - - -
15/06:00pm 0.7 -6.1 0.7 100 0.0 WSW 26 44 - 24 - - -
15/05:30pm 0.8 -6.0 0.8 100 0.0 W 26 43 - 23 - - -
15/05:00pm 1.3 -5.8 1.3 100 0.0 WSW 28 44 - 24 - - -
15/04:30pm 1.6 -4.7 1.5 99 0.0 WSW 24 39 - 21 - - -
15/04:00pm 1.9 -4.2 0.7 92 0.5 WSW 22 35 - 19 - - -
15/03:30pm 2.3 -4.1 0.7 89 0.7 WSW 24 43 - 23 - - -
15/03:00pm 2.9 -3.2 0.5 84 1.0 WSW 22 44 - 24 - - -
15/02:30pm 3.0 -1.6 1.5 90 0.6 WSW 15 22 - 12 - - -
15/02:00pm 2.4 -3.0 1.1 91 0.6 WSW 19 30 - 16 - - 0.0
15/01:30pm 2.8 -2.2 1.6 92 0.5 WSW 17 28 - 15 - - 0.0
15/01:00pm 1.9 -3.4 1.8 99 0.0 W 19 28 - 15 - - 0.0
15/12:30pm 2.9 -2.3 2.5 97 0.2 WSW 19 32 - 17 - - 0.0
15/12:00pm 2.5 -2.4 2.2 98 0.1 WSW 17 30 - 16 - - 0.0
15/11:30am 1.8 -2.8 1.7 99 0.0 WSW 15 22 - 12 - - 0.0
15/11:00am 1.4 -3.3 1.1 98 0.1 WSW 15 24 - 13 - - 0.0
15/10:30am 1.5 -2.9 0.6 94 0.4 WSW 13 20 - 11 - - 0.0
15/10:00am 1.1 -3.2 0.8 98 0.1 SW 13 19 - 10 - - 0.0
15/09:30am 0.9 -3.2 -0.2 92 0.4 WSW 11 13 - 7 - - 0.0
15/09:00am 0.4 -3.7 -0.2 96 0.2 SW 11 19 - 10 - - 8.0
15/08:30am -0.2 -4.3 -0.3 99 0.0 SW 11 15 - 8 - - -
15/08:00am -0.3 -3.6 -1.1 94 0.3 SW 6 13 - 7 - - -
15/07:30am -0.4 -2.6 -1.2 94 0.3 CALM 0 0 - 0 - - -
15/07:00am -0.3 -2.4 -1.1 94 0.3 CALM 0 0 - 0 - - -
15/06:30am -0.1 -2.2 -0.9 94 0.3 CALM 0 0 - 0 - - -
15/06:00am -0.2 -2.3 -1.0 94 0.3 CALM 0 0 - 0 - - -
15/05:30am -0.3 -2.4 -0.9 96 0.2 CALM 0 0 - 0 - - -
15/05:00am -0.2 -2.2 -0.3 99 0.0 CALM 0 0 - 0 - - -
15/04:30am -0.2 -4.7 -0.3 99 0.0 SW 13 19 - 10 - - -
15/04:00am 0.0 -4.1 -0.1 99 0.0 SW 11 13 - 7 - - -
15/03:30am 0.4 -3.6 0.3 99 0.0 SW 11 20 - 11 - - -
15/03:00am 0.0 -4.5 -0.3 98 0.1 SW 13 17 - 9 - - 0.0
15/02:30am 0.0 -4.5 -0.4 97 0.2 SW 13 15 - 8 - - -
15/02:00am 0.4 -3.3 -0.3 95 0.3 WSW 9 11 - 6 - - -
15/01:30am 0.5 -3.2 -0.2 95 0.3 WSW 9 15 - 8 - - -
15/01:00am 0.6 -3.5 -0.1 95 0.3 WSW 11 15 - 8 - - -
15/12:30am 0.8 -2.9 0.1 95 0.3 W 9 13 - 7 - - -
15/12:00am 0.7 -2.9 0.3 97 0.2 WSW 9 15 - 8 - - -
 
Date/Time
EDT
Temp
°C
App
Temp
°C
Dew
Point
°C
Rel
Hum
%
Delta-T
°C
Wind Press
QNH
hPa
Press
MSL
hPa
Rain since
9am
mm
Dir  Spd
km/h
Gust
km/h
Spd
kts
Gust
kts
14/11:30pm 0.9 -3.1 0.3 96 0.2 WSW 11 15 - 8 - - -
14/11:00pm 1.1 -2.6 0.1 93 0.4 W 9 13 - 7 - - -
14/10:30pm 1.3 -2.3 0.4 94 0.4 WSW 9 13 - 7 - - -
14/10:00pm 1.4 -1.8 0.7 95 0.3 W 7 9 - 5 - - -
14/09:30pm 1.3 -1.9 0.7 96 0.2 WSW 7 11 - 6 - - -
14/09:00pm 0.5 -2.2 0.2 98 0.1 S 4 7 - 4 - - 6.0
14/08:30pm 0.2 -2.9 0.1 99 0.0 E 6 9 - 5 - - -
14/08:00pm 0.9 -2.3 0.8 99 0.0 SSE 7 13 - 7 - - -
14/07:30pm 1.6 -1.5 1.5 99 0.0 S 7 11 - 6 - - -
14/07:00pm 1.4 -1.5 1.3 99 0.0 SSE 6 9 - 5 - - -
14/06:30pm 1.6 -1.9 1.5 99 0.0 S 9 11 - 6 - - -
14/06:00pm 1.6 -1.3 1.5 99 0.0 SE 6 9 - 5 - - -
14/05:30pm 1.3 -1.9 0.9 97 0.2 ESE 7 11 - 6 - - -
14/05:00pm 1.9 -1.0 1.5 97 0.2 SE 6 9 - 5 - - -
14/04:30pm 2.7 -1.4 2.3 97 0.2 SSW 13 20 - 11 - - -
14/04:00pm 4.2 0.4 3.9 98 0.1 SSW 13 20 - 11 - - -
14/03:30pm 3.4 0.5 2.8 96 0.3 S 7 11 - 6 - - -
14/03:00pm 4.0 1.7 2.5 90 0.7 NW 4 11 - 6 - - -
14/02:30pm 5.2 1.1 4.3 94 0.4 SW 15 20 - 11 - - -
14/02:00pm 7.2 4.3 4.7 84 1.2 SW 9 15 - 8 - - -
14/01:30pm 8.8 5.5 -1.3 49 4.3 ESE 6 15 - 8 - - -
14/01:00pm 9.8 6.5 -1.6 45 4.9 E 6 11 - 6 - - -
14/12:30pm 9.4 6.1 -0.2 51 4.2 NE 7 13 - 7 - - -
14/12:00pm 6.9 3.6 0.4 63 2.8 S 7 15 - 8 - - -
14/11:30am 7.9 4.5 -0.6 55 3.6 NE 7 13 - 7 - - -
14/11:00am 7.2 4.0 0.6 63 2.9 NE 7 17 - 9 - - -
14/10:30am 5.9 1.6 -2.0 57 3.2 NNE 11 22 - 12 - - -
14/10:00am 5.8 1.8 -2.3 56 3.3 NNE 9 19 - 10 - - -
14/09:30am 4.8 - -1.6 63 2.6 - - - - - - - -
14/09:00am 3.7 -0.2 -1.3 70 2.0 NNE 9 22 - 12 - - -
14/08:30am 3.0 -0.9 -1.4 73 1.8 NNE 9 22 - 12 - - -
14/08:00am 0.8 -3.0 -1.1 87 0.7 NNE 9 17 - 9 - - -
14/07:30am 0.9 -3.4 -1.7 83 1.1 NNE 11 20 - 11 - - -
14/07:00am 0.5 -3.7 -1.1 89 0.7 NE 11 19 - 10 - - -
14/06:30am 1.0 -3.7 -1.7 82 1.1 NNE 13 20 - 11 - - -
14/06:00am 1.1 -3.1 -0.8 87 0.8 NNE 11 22 - 12 - - -
14/05:30am 1.2 -3.2 0.3 94 0.4 NNE 13 26 - 14 - - -
14/05:00am 0.8 -3.6 0.5 98 0.1 NNE 13 26 - 14 - - -
14/04:30am 1.0 -3.0 0.7 98 0.1 NNE 11 22 - 12 - - -
14/04:00am 0.7 -2.9 0.7 100 0.0 NNE 9 17 - 9 - - -
14/03:30am 1.1 -2.8 1.1 100 0.0 NNW 11 22 - 12 - - -
14/03:00am 1.9 -2.3 1.9 100 0.0 NNE 13 20 - 11 - - -
14/02:30am 1.9 -1.9 1.9 100 0.0 N 11 22 - 12 - - -
14/02:00am 5.3 2.5 5.3 100 0.0 E 9 17 - 9 - - -
14/01:30am 5.2 2.0 5.2 100 0.0 ENE 11 17 - 9 - - -
14/01:00am 5.2 1.6 5.2 100 0.0 ENE 13 20 - 11 - - -
14/12:30am 5.0 1.4 5.0 100 0.0 ENE 13 19 - 10 - - -
14/12:00am 4.8 1.2 4.8 100 0.0 NE 13 20 - 11 - - -
 
Date/Time
EDT
Temp
°C
App
Temp
°C
Dew
Point
°C
Rel
Hum
%
Delta-T
°C
Wind Press
QNH
hPa
Press
MSL
hPa
Rain since
9am
mm
Dir  Spd
km/h
Gust
km/h
Spd
kts
Gust
kts
13/11:30pm 4.9 1.3 4.9 100 0.0 NE 13 20 - 11 - - -
13/11:00pm 5.1 1.5 5.1 100 0.0 NE 13 20 - 11 - - -
13/10:00pm 5.2 1.6 5.2 100 0.0 NE 13 20 - 11 - - -
13/09:30pm 5.3 - 5.3 100 0.0 - - - - - - - -
13/09:00pm 5.4 2.3 5.4 100 0.0 ENE 11 19 - 10 - - 1.0
13/08:30pm 5.4 2.7 5.4 100 0.0 ENE 9 17 - 9 - - 0.6
13/08:00pm 5.4 2.3 5.4 100 0.0 NE 11 19 - 10 - - 0.6
13/07:30pm 5.5 2.8 5.5 100 0.0 ENE 9 15 - 8 - - 0.6
13/07:00pm 5.7 3.0 5.6 99 0.0 NE 9 20 - 11 - - 0.6
13/06:30pm 5.8 3.1 5.8 100 0.0 ENE 9 19 - 10 - - 0.4
13/06:00pm 6.1 3.9 6.0 99 0.0 ENE 7 15 - 8 - - 0.4
13/05:30pm 6.1 3.5 6.0 99 0.0 ENE 9 17 - 9 - - 0.2
13/05:00pm 6.2 3.6 6.1 99 0.0 ENE 9 15 - 8 - - 0.2
13/04:30pm 6.4 3.8 6.1 98 0.1 ENE 9 15 - 8 - - 0.0
13/04:00pm 6.5 4.2 5.9 96 0.3 E 7 13 - 7 - - 0.0
13/03:30pm 6.9 4.5 5.2 89 0.8 E 7 11 - 6 - - 0.0
13/03:00pm 7.2 4.8 5.2 87 1.0 E 7 17 - 9 - - 0.0
13/02:30pm 7.5 5.0 4.8 83 1.3 ENE 7 15 - 8 - - 0.0
13/02:00pm 7.6 5.0 4.0 78 1.7 ENE 7 13 - 7 - - 0.0
13/01:30pm 8.0 5.1 4.4 78 1.7 ENE 9 17 - 9 - - 0.0
13/01:00pm 7.8 4.7 3.5 74 2.0 ENE 9 15 - 8 - - 0.0
13/12:30pm 7.3 4.2 3.5 77 1.8 ENE 9 15 - 8 - - 0.0
13/12:00pm 7.9 5.3 4.1 77 1.8 ENE 7 13 - 7 - - 0.0
13/11:30am 8.3 5.8 3.9 74 2.1 E 6 11 - 6 - - 0.0
13/11:00am 6.9 3.4 3.5 79 1.6 NE 11 17 - 9 - - 0.0
13/10:30am 6.7 3.3 4.0 83 1.3 NE 11 20 - 11 - - 0.0
13/10:00am 4.8 1.7 3.8 93 0.5 ENE 9 17 - 9 - - 0.0
13/09:30am 4.0 0.4 3.1 94 0.4 NE 11 17 - 9 - - 0.0
13/09:00am 4.2 0.8 3.8 97 0.2 NE 11 17 - 9 - - -
13/08:30am 3.5 0.3 3.2 98 0.1 ENE 9 13 - 7 - - -
13/08:00am 3.0 -0.3 2.7 98 0.1 ENE 9 17 - 9 - - -
13/07:30am 3.0 0.1 2.7 98 0.1 ENE 7 11 - 6 - - -
13/07:00am 2.9 -0.4 2.6 98 0.1 NE 9 15 - 8 - - -

Other formats

Comma delimited format used in spreadsheet applications
http://www.bom.gov.au/fwo/IDV60801/IDV60801.95901.axf

JavaScript Object Notation format (JSON) in row-major order
http://www.bom.gov.au/fwo/IDV60801/IDV60801.95901.json

Data quality

Most of these data are generated automatically and are frequently updated. Quality checks on data are not normally performed. It is possible for incorrect values to appear. Refer to information at About Latest Weather Observations and please check the disclaimer before using these data.